Time;durP1;ratioP1;P1;durP2;ratioP2;P2;SDS_P1;SDS_P2;PMS_P1;PMS_P2;Temp;Humidity;BMP_temperature;BMP_pressure;BME280_temperature;BME280_humidity;BME280_pressure;Samples;Min_cycle;Max_cycle;Signal;HPM_P1;HPM_P2
2021/12/21 00:01:16;;;;;;;29.80;17.38;;;;;;;0.89;64.90;100516.19;5047051;28;20067;-74
2021/12/21 00:03:44;;;;;;;25.90;18.95;;;;;;;0.87;65.10;100523.19;5044721;28;20073;-75
2021/12/21 00:06:11;;;;;;;26.67;15.98;;;;;;;0.86;65.26;100518.88;5043879;28;20041;-75
2021/12/21 00:08:38;;;;;;;23.25;14.82;;;;;;;0.87;65.06;100520.59;5045241;28;20072;-75
2021/12/21 00:11:05;;;;;;;37.53;17.40;;;;;;;0.85;65.02;100514.56;5045789;28;20053;-76
2021/12/21 00:13:46;;;;;;;28.65;15.02;;;;;;;0.87;65.22;100517.13;5044537;28;20184;-75
2021/12/21 00:16:26;;;;;;;23.95;15.27;;;;;;;0.87;64.80;100511.94;5044788;28;20522;-75
2021/12/21 00:19:08;;;;;;;25.92;17.98;;;;;;;0.86;64.62;100516.25;5046240;28;20609;-76
2021/12/21 00:21:39;;;;;;;23.52;15.75;;;;;;;0.86;64.49;100505.03;5045542;28;20139;-74
2021/12/21 00:24:13;;;;;;;33.65;15.98;;;;;;;0.84;64.37;100505.06;5045550;28;20053;-76
2021/12/21 00:26:41;;;;;;;23.70;14.88;;;;;;;0.79;64.34;100519.94;5044808;28;20475;-77
2021/12/21 00:29:13;;;;;;;22.58;13.63;;;;;;;0.80;64.21;100519.06;5046101;28;20136;-76
2021/12/21 00:31:40;;;;;;;24.20;14.93;;;;;;;0.79;63.98;100517.34;5045201;28;20497;-74
2021/12/21 00:34:11;;;;;;;21.45;14.07;;;;;;;0.81;63.66;100518.16;5026641;28;20064;-75
2021/12/21 00:36:40;;;;;;;20.33;12.10;;;;;;;0.80;63.88;100521.66;5043781;28;20072;-76
2021/12/21 00:39:11;;;;;;;23.35;13.90;;;;;;;0.82;63.76;100519.84;5044670;28;20045;-74
2021/12/21 00:41:39;;;;;;;22.50;13.32;;;;;;;0.83;63.02;100524.19;5044829;28;20131;-75
2021/12/21 00:44:06;;;;;;;20.75;14.98;;;;;;;0.80;63.07;100523.41;5044377;28;20104;-76
2021/12/21 00:46:35;;;;;;;17.58;11.38;;;;;;;0.77;63.42;100524.31;5045130;28;20652;-76
2021/12/21 00:49:13;;;;;;;19.30;13.90;;;;;;;0.80;63.25;100529.44;5044597;28;20065;-74
2021/12/21 00:51:41;;;;;;;21.65;13.50;;;;;;;0.79;63.26;100530.34;5045148;28;20145;-76
2021/12/21 00:54:08;;;;;;;20.60;13.70;;;;;;;0.74;63.38;100533.06;5044820;28;20059;-74
2021/12/21 00:56:35;;;;;;;26.38;15.60;;;;;;;0.79;63.58;100540.72;5045218;28;20045;-75
2021/12/21 00:59:02;;;;;;;23.50;14.63;;;;;;;0.76;63.75;100544.28;5051223;28;20083;-75
2021/12/21 01:01:30;;;;;;;38.15;14.98;;;;;;;0.71;64.04;100540.94;5049829;28;20069;-75
2021/12/21 01:04:00;;;;;;;22.77;12.15;;;;;;;0.80;64.04;100542.44;5045703;28;20056;-75
2021/12/21 01:06:39;;;;;;;24.55;13.75;;;;;;;0.81;64.11;100544.16;5043906;28;20057;-74
2021/12/21 01:09:12;;;;;;;23.85;15.82;;;;;;;0.80;64.55;100547.66;5044546;28;20100;-75
2021/12/21 01:11:43;;;;;;;25.70;16.73;;;;;;;0.82;64.51;100548.47;5045182;28;20186;-73
2021/12/21 01:14:55;;;;;;;27.13;16.58;;;;;;;0.90;64.21;100536.09;5044616;28;20045;-75
2021/12/21 01:17:10;;;;;;;23.30;13.18;;;;;;;0.88;63.61;100550.91;5046433;28;20144;-74
2021/12/21 01:19:41;;;;;;;21.13;9.73;;;;;;;0.93;63.55;100549.00;5055269;28;20049;-75
2021/12/21 01:22:15;;;;;;;20.13;10.10;;;;;;;0.90;63.50;100553.44;5058240;28;20048;-75
2021/12/21 01:25:10;;;;;;;18.67;10.80;;;;;;;1.02;63.18;100554.84;5031855;28;20049;-75
2021/12/21 01:27:53;;;;;;;21.10;10.02;;;;;;;1.06;63.01;100551.25;5059857;28;20140;-76
2021/12/21 01:30:33;;;;;;;21.48;11.05;;;;;;;1.00;62.62;100551.44;5051681;28;20469;-74
2021/12/21 01:33:11;;;;;;;15.77;8.85;;;;;;;0.91;62.71;100558.59;5049118;28;20171;-75
2021/12/21 01:35:44;;;;;;;17.70;9.55;;;;;;;0.98;62.65;100558.44;5049363;28;20056;-75
2021/12/21 01:38:23;;;;;;;15.93;10.13;;;;;;;0.92;62.57;100552.53;5048636;28;20045;-75
2021/12/21 01:40:56;;;;;;;17.13;9.93;;;;;;;0.98;62.31;100555.84;5050178;28;20053;-76
2021/12/21 01:43:30;;;;;;;18.17;11.55;;;;;;;0.92;62.38;100546.47;5049034;28;20056;-76
2021/12/21 01:51:29;;;;;;;21.10;12.65;;;;;;;0.66;62.12;100550.63;5048125;28;20789;-75
2021/12/21 01:53:56;;;;;;;20.63;10.48;;;;;;;0.71;62.37;100566.09;5047898;28;20056;-74
2021/12/21 01:56:24;;;;;;;13.75;9.55;;;;;;;0.83;62.25;100570.97;5031141;28;20053;-75
2021/12/21 01:58:52;;;;;;;14.25;8.65;;;;;;;0.88;62.14;100561.31;5048597;28;20125;-76
2021/12/21 02:01:25;;;;;;;14.45;11.27;;;;;;;1.02;61.98;100570.47;5049878;28;20148;-75
2021/12/21 02:03:52;;;;;;;23.30;11.95;;;;;;;0.92;61.83;100559.47;5048139;28;20114;-77
2021/12/21 02:06:22;;;;;;;17.83;10.63;;;;;;;0.92;61.82;100570.72;5045905;28;20063;-74
2021/12/21 02:08:51;;;;;;;19.88;11.57;;;;;;;0.88;61.82;100569.13;5048629;28;20504;-76
2021/12/21 02:11:18;;;;;;;19.80;12.13;;;;;;;0.85;61.92;100570.94;5047800;28;20060;-75
2021/12/21 02:13:48;;;;;;;20.55;12.20;;;;;;;0.88;61.89;100563.91;5048007;28;20085;-75
2021/12/21 02:16:23;;;;;;;18.30;11.30;;;;;;;0.97;61.65;100567.13;5031526;28;20045;-75
2021/12/21 02:18:55;;;;;;;20.38;12.52;;;;;;;0.97;61.42;100569.75;5014645;28;20064;-75
2021/12/21 02:21:30;;;;;;;19.00;11.27;;;;;;;0.89;61.62;100575.16;5047551;28;20437;-75
2021/12/21 02:24:03;;;;;;;19.95;10.80;;;;;;;0.87;61.93;100567.41;5048611;28;20114;-75
2021/12/21 02:27:05;;;;;;;19.05;10.35;;;;;;;0.85;61.50;100578.75;5048370;28;20605;-75
2021/12/21 02:29:34;;;;;;;20.40;11.27;;;;;;;0.83;61.38;100577.91;5048239;28;20048;-75
2021/12/21 02:32:02;;;;;;;16.58;8.38;;;;;;;0.87;61.58;100576.94;5049943;28;20048;-76
2021/12/21 02:34:29;;;;;;;24.00;10.95;;;;;;;0.82;61.54;100579.66;5049725;28;20574;-75
2021/12/21 02:36:58;;;;;;;20.27;11.27;;;;;;;0.79;61.75;100576.28;5045524;28;20052;-75
2021/12/21 02:39:26;;;;;;;18.92;10.48;;;;;;;0.81;61.36;100577.97;5047579;28;20068;-75
2021/12/21 02:41:56;;;;;;;16.67;9.40;;;;;;;0.74;61.67;100569.47;5047033;28;20045;-75
2021/12/21 02:44:24;;;;;;;17.30;10.38;;;;;;;0.78;61.36;100572.84;5047646;28;20152;-75
2021/12/21 02:46:51;;;;;;;19.25;10.45;;;;;;;0.76;61.56;100572.03;5047109;28;20056;-76
2021/12/21 02:49:19;;;;;;;18.42;9.73;;;;;;;0.80;61.33;100571.06;5048901;28;20103;-75
2021/12/21 02:51:49;;;;;;;17.50;11.15;;;;;;;0.76;61.54;100580.69;5047492;28;20049;-75
2021/12/21 02:54:20;;;;;;;17.30;11.27;;;;;;;0.71;61.31;100577.34;5047120;28;20139;-75
2021/12/21 02:56:48;;;;;;;15.02;8.48;;;;;;;0.69;61.69;100578.28;5047844;28;20135;-75
2021/12/21 02:59:15;;;;;;;18.85;7.47;;;;;;;0.71;61.55;100581.72;5048916;28;20120;-75
2021/12/21 03:01:42;;;;;;;15.63;9.38;;;;;;;0.67;61.72;100586.13;5047279;28;20535;-74
2021/12/21 03:04:09;;;;;;;17.88;10.20;;;;;;;0.64;61.52;100590.56;5047603;28;20056;-76
2021/12/21 03:09:42;;;;;;;18.05;9.38;;;;;;;0.68;61.57;100592.19;5013164;28;20046;-75
2021/12/21 03:12:27;;;;;;;15.43;9.35;;;;;;;0.66;61.55;100600.00;5029287;28;20030;-76
2021/12/21 03:14:54;;;;;;;13.90;8.80;;;;;;;0.64;61.54;100600.97;5029513;28;20332;-76
2021/12/21 03:17:22;;;;;;;14.77;6.82;;;;;;;0.64;61.56;100604.41;5028147;28;20050;-75
2021/12/21 03:19:49;;;;;;;12.30;7.07;;;;;;;0.63;61.51;100607.03;5028334;28;20073;-76
2021/12/21 03:22:17;;;;;;;16.10;8.55;;;;;;;0.57;61.72;100605.44;5029015;28;20041;-76
2021/12/21 03:24:46;;;;;;;16.40;9.10;;;;;;;0.58;61.74;100599.38;5025053;28;20054;-73
2021/12/21 03:27:14;;;;;;;15.50;7.53;;;;;;;0.54;61.73;100606.41;5007526;28;20042;-75
2021/12/21 03:29:42;;;;;;;14.98;8.77;;;;;;;0.51;61.81;100611.66;5009218;28;20050;-75
2021/12/21 03:32:09;;;;;;;13.73;9.45;;;;;;;0.43;61.89;100605.78;5010636;28;20057;-74
2021/12/21 03:34:37;;;;;;;13.38;8.50;;;;;;;0.45;61.88;100617.03;5008875;28;20054;-76
2021/12/21 03:37:11;;;;;;;17.38;9.25;;;;;;;0.38;61.66;100616.31;5007820;28;20046;-76
2021/12/21 03:39:39;;;;;;;17.08;8.32;;;;;;;0.31;62.03;100616.50;5011399;28;20091;-76
2021/12/21 03:42:09;;;;;;;13.18;9.07;;;;;;;0.35;61.81;100618.13;5009555;28;20556;-75
2021/12/21 03:44:37;;;;;;;13.30;9.38;;;;;;;0.38;61.64;100618.91;5016258;28;20060;-74
2021/12/21 03:47:08;;;;;;;13.98;9.15;;;;;;;0.42;61.76;100621.44;5048773;28;20099;-74
2021/12/21 03:49:54;;;;;;;18.55;9.82;;;;;;;0.36;61.49;100625.03;5048581;28;20143;-76
2021/12/21 03:52:24;;;;;;;13.93;9.10;;;;;;;0.37;61.51;100632.78;5048883;28;20139;-75
2021/12/21 03:54:53;;;;;;;12.82;8.43;;;;;;;0.35;61.28;100625.94;5048257;28;20073;-76
2021/12/21 03:57:22;;;;;;;18.05;10.15;;;;;;;0.37;61.44;100622.38;5046930;28;20080;-75
2021/12/21 03:59:50;;;;;;;16.48;9.75;;;;;;;0.33;61.22;100628.56;5047537;28;20131;-75
2021/12/21 04:02:19;;;;;;;14.63;8.32;;;;;;;0.29;60.95;100631.25;5047237;28;20685;-74
2021/12/21 04:04:48;;;;;;;15.27;8.20;;;;;;;0.31;61.07;100632.09;5046267;28;20045;-75
2021/12/21 04:07:15;;;;;;;13.35;8.48;;;;;;;0.26;61.02;100629.59;5045402;28;20045;-75
2021/12/21 04:09:43;;;;;;;13.00;8.07;;;;;;;0.28;61.22;100625.22;5046935;28;20128;-75
2021/12/21 04:12:10;;;;;;;11.68;7.47;;;;;;;0.31;60.70;100634.69;5029042;28;20080;-74
2021/12/21 04:14:40;;;;;;;10.82;7.18;;;;;;;0.21;60.97;100636.63;5045827;28;20667;-76
2021/12/21 04:17:07;;;;;;;14.55;9.10;;;;;;;0.17;61.26;100641.06;5045594;28;20045;-75
2021/12/21 04:19:34;;;;;;;13.18;9.30;;;;;;;0.16;61.40;100649.75;5046188;28;20457;-75
2021/12/21 04:22:01;;;;;;;18.65;9.02;;;;;;;0.13;61.34;100647.22;5048742;28;20049;-75
2021/12/21 04:24:28;;;;;;;14.07;8.05;;;;;;;0.14;61.28;100654.09;5046642;28;20138;-75
2021/12/21 04:26:55;;;;;;;12.00;7.18;;;;;;;0.15;61.57;100650.63;5047023;28;20136;-76
2021/12/21 04:29:22;;;;;;;13.32;7.50;;;;;;;0.18;61.40;100653.16;5047585;28;20096;-76
2021/12/21 04:31:52;;;;;;;14.80;9.50;;;;;;;0.19;61.17;100662.66;5046580;28;20132;-74
2021/12/21 04:34:19;;;;;;;14.10;7.55;;;;;;;0.21;61.34;100659.19;5045719;28;20132;-76
2021/12/21 04:36:47;;;;;;;14.60;8.48;;;;;;;0.24;61.14;100653.91;5045417;28;20084;-75
2021/12/21 04:39:26;;;;;;;13.48;8.82;;;;;;;0.17;61.30;100651.44;5047169;28;20059;-74
2021/12/21 04:41:54;;;;;;;17.83;8.35;;;;;;;0.21;61.57;100653.97;5047019;28;20116;-75
2021/12/21 04:44:21;;;;;;;16.13;9.40;;;;;;;0.18;61.30;100671.34;5046231;28;20100;-76
2021/12/21 04:46:53;;;;;;;12.05;8.15;;;;;;;0.18;61.23;100668.75;5049007;28;20147;-76
2021/12/21 04:49:21;;;;;;;15.65;11.32;;;;;;;0.22;60.92;100666.06;5030755;28;20052;-73
2021/12/21 04:51:49;;;;;;;13.90;8.43;;;;;;;0.25;61.19;100664.25;5049103;28;20053;-74
2021/12/21 04:54:17;;;;;;;17.95;11.23;;;;;;;0.25;60.86;100671.19;5050847;28;20073;-75
2021/12/21 04:56:44;;;;;;;15.93;8.90;;;;;;;0.24;61.17;100680.75;5066247;28;20084;-75
2021/12/21 04:59:12;;;;;;;16.73;8.70;;;;;;;0.23;61.02;100680.78;5066212;28;20044;-76
2021/12/21 05:01:39;;;;;;;15.05;8.82;;;;;;;0.26;61.28;100689.34;5067517;28;20423;-77
2021/12/21 05:04:10;;;;;;;18.40;12.23;;;;;;;0.25;60.99;100684.19;5066420;28;20040;-75
2021/12/21 05:06:59;;;;;;;17.60;11.52;;;;;;;0.21;61.46;100695.53;5062831;28;20056;-75
2021/12/21 05:09:29;;;;;;;16.17;11.40;;;;;;;0.17;61.02;100692.16;5064459;28;20072;-76
2021/12/21 05:12:02;;;;;;;14.95;10.13;;;;;;;0.19;60.94;100695.56;5051485;28;20053;-75
2021/12/21 05:14:30;;;;;;;13.63;10.13;;;;;;;0.18;61.21;100699.94;5051030;28;20110;-75
2021/12/21 05:16:57;;;;;;;12.25;9.05;;;;;;;0.17;61.33;100690.41;5049181;28;20084;-75
2021/12/21 05:19:26;;;;;;;14.70;10.45;;;;;;;0.20;61.11;100689.50;4999376;28;20056;-75
2021/12/21 05:21:53;;;;;;;13.10;8.82;;;;;;;0.16;60.28;100704.31;5049441;28;20668;-75
2021/12/21 05:24:21;;;;;;;11.45;8.60;;;;;;;0.13;59.91;100708.72;5050063;28;20191;-76
2021/12/21 05:26:49;;;;;;;10.25;7.55;;;;;;;0.14;58.79;100716.44;5050489;28;20073;-75
2021/12/21 05:29:17;;;;;;;7.40;5.38;;;;;;;0.13;56.36;100714.75;5032546;28;20099;-75
2021/12/21 05:31:45;;;;;;;8.13;5.95;;;;;;;0.09;56.14;100712.25;5031333;28;20057;-75
2021/12/21 05:34:13;;;;;;;9.75;6.47;;;;;;;0.11;56.05;100715.66;5031049;28;20542;-76
2021/12/21 05:36:46;;;;;;;12.45;6.97;;;;;;;0.08;55.41;100718.34;5032786;28;20195;-75
2021/12/21 05:39:19;;;;;;;8.73;5.88;;;;;;;0.00;54.83;100721.13;5051095;28;20053;-75
2021/12/21 05:41:50;;;;;;;11.68;5.72;;;;;;;-0.03;54.58;100722.00;5041362;28;20041;-81
2021/12/21 05:44:19;;;;;;;11.57;5.78;;;;;;;0.07;54.81;100720.06;5051480;28;20049;-76
2021/12/21 05:46:46;;;;;;;8.00;5.15;;;;;;;0.06;55.11;100715.78;5016511;28;20048;-75
2021/12/21 05:49:14;;;;;;;11.98;7.03;;;;;;;0.05;55.23;100719.25;5050831;28;20069;-73
2021/12/21 05:51:45;;;;;;;10.95;6.00;;;;;;;0.10;55.40;100720.00;5051953;28;20071;-75
2021/12/21 05:54:12;;;;;;;9.82;6.28;;;;;;;0.05;55.39;100721.84;5050218;28;20069;-74
2021/12/21 05:56:40;;;;;;;9.18;6.57;;;;;;;-0.01;55.79;100720.25;5047797;28;20049;-72
2021/12/21 05:59:08;;;;;;;13.63;6.68;;;;;;;-0.09;56.13;100721.28;5029985;28;20094;-75
2021/12/21 06:01:36;;;;;;;10.25;7.38;;;;;;;-0.07;56.61;100732.53;5053914;28;20132;-75
2021/12/21 06:04:05;;;;;;;17.98;11.13;;;;;;;-0.06;56.79;100734.22;5066845;28;20064;-74
2021/12/21 06:06:32;;;;;;;15.20;10.95;;;;;;;-0.10;56.33;100736.00;5065356;28;20062;-74
2021/12/21 06:09:08;;;;;;;17.70;12.77;;;;;;;-0.11;56.71;100736.03;5065090;28;20135;-73
2021/12/21 06:11:40;;;;;;;;;;;;;;;0.00;56.37;100741.88;5048792;28;20051;-74
2021/12/21 06:14:20;;;;;;;15.32;7.07;;;;;;;-0.13;56.40;100735.22;5046721;28;20015;-71
2021/12/21 06:27:46;;;;;;;18.33;10.30;;;;;;;-0.06;55.75;100754.97;5044091;28;20060;-73
2021/12/21 06:30:14;;;;;;;23.20;10.43;;;;;;;-0.03;55.86;100770.50;5041465;28;20051;-73
2021/12/21 06:32:43;;;;;;;15.95;7.65;;;;;;;-0.11;55.80;100765.47;4993833;28;20658;-73
2021/12/21 06:35:11;;;;;;;15.73;7.97;;;;;;;-0.14;55.82;100767.28;5027837;28;20041;-74
2021/12/21 06:37:38;;;;;;;14.27;8.30;;;;;;;-0.13;55.77;100763.78;5042799;28;20077;-73
2021/12/21 06:40:08;;;;;;;14.82;7.68;;;;;;;-0.18;55.99;100774.28;5044880;28;20048;-74
2021/12/21 06:42:36;;;;;;;12.45;8.07;;;;;;;-0.42;56.10;100763.47;5043025;28;20136;-73
2021/12/21 06:45:11;;;;;;;12.23;7.70;;;;;;;-0.44;56.21;100765.22;5043600;28;20083;-71
2021/12/21 06:53:11;;;;;;;30.98;11.77;;;;;;;-0.60;56.51;100763.81;5023575;28;20148;-73
2021/12/21 06:55:40;;;;;;;25.80;9.93;;;;;;;-0.71;56.83;100765.75;5039039;28;20102;-74
2021/12/21 06:58:07;;;;;;;25.42;10.30;;;;;;;-0.79;57.00;100773.66;5044187;28;20044;-75
2021/12/21 07:00:35;;;;;;;36.03;12.18;;;;;;;-0.89;57.06;100777.28;5040321;28;20068;-73
2021/12/21 07:03:03;;;;;;;86.07;29.65;;;;;;;-0.99;56.97;100781.75;5046027;28;20167;-76
2021/12/21 07:05:31;;;;;;;146.77;51.03;;;;;;;-1.03;56.90;100783.53;5044998;28;20068;-73
2021/12/21 07:08:02;;;;;;;161.00;54.28;;;;;;;-1.09;57.08;100791.44;5044923;28;20063;-75
2021/12/21 07:10:32;;;;;;;176.65;59.78;;;;;;;-1.15;57.02;100799.31;5045780;28;20099;-75
2021/12/21 07:18:31;;;;;;;11.43;6.10;;;;;;;-1.22;54.02;100811.50;5046144;28;20155;-73
2021/12/21 07:21:00;;;;;;;11.75;5.72;;;;;;;-1.21;53.66;100820.97;5044762;28;20382;-75
2021/12/21 07:23:30;;;;;;;8.25;4.68;;;;;;;-1.16;53.19;100816.59;5044498;28;20136;-75
2021/12/21 07:25:57;;;;;;;11.43;7.03;;;;;;;-1.20;52.41;100819.25;5063886;28;20659;-76
2021/12/21 07:28:26;;;;;;;12.15;7.22;;;;;;;-1.21;51.51;100830.50;5062795;28;20052;-75
2021/12/21 07:30:57;;;;;;;11.60;6.38;;;;;;;-1.17;51.00;100825.25;5051656;28;20076;-75
2021/12/21 07:33:25;;;;;;;9.57;6.13;;;;;;;-1.08;51.10;100829.44;5053485;28;20072;-75
2021/12/21 07:35:52;;;;;;;11.48;6.30;;;;;;;-1.00;50.71;100832.75;5052976;28;20555;-77
2021/12/21 07:38:24;;;;;;;10.65;7.65;;;;;;;-0.94;50.89;100831.81;5046549;28;20691;-75
2021/12/21 07:40:51;;;;;;;17.35;8.88;;;;;;;-0.88;50.79;100831.72;5043976;28;20640;-78
2021/12/21 07:43:19;;;;;;;18.10;8.60;;;;;;;-0.83;51.30;100835.13;5044239;28;20585;-77
2021/12/21 07:45:52;;;;;;;12.88;6.63;;;;;;;-0.86;51.77;100844.69;5024422;28;20056;-76
2021/12/21 07:48:25;;;;;;;11.38;6.45;;;;;;;-0.99;51.93;100839.69;5063938;28;20672;-76
2021/12/21 07:50:57;;;;;;;12.57;5.20;;;;;;;-1.09;52.27;100847.63;5064536;28;20086;-79
2021/12/21 07:53:25;;;;;;;13.88;6.50;;;;;;;-1.17;52.59;100847.72;5048090;28;20103;-79
2021/12/21 07:56:02;;;;;;;16.55;6.95;;;;;;;-1.26;52.87;100843.53;5050571;28;20053;-78
2021/12/21 07:58:30;;;;;;;14.98;5.80;;;;;;;-1.34;53.11;100858.31;5044876;28;20053;-76
2021/12/21 08:01:00;;;;;;;11.65;5.30;;;;;;;-1.42;53.22;100855.84;5042981;28;20053;-76
2021/12/21 08:03:28;;;;;;;11.30;6.65;;;;;;;-1.48;53.38;100863.69;5042509;28;20115;-75
2021/12/21 08:05:57;;;;;;;12.05;6.07;;;;;;;-1.52;53.58;100856.84;5043071;28;20087;-77
2021/12/21 08:08:27;;;;;;;10.63;4.85;;;;;;;-1.52;53.68;100859.44;5042190;28;20145;-77
2021/12/21 08:11:09;;;;;;;9.00;4.72;;;;;;;-1.50;53.77;100862.84;5045888;28;20064;-74
2021/12/21 08:13:37;;;;;;;18.38;7.78;;;;;;;-1.48;53.96;100865.44;5043128;28;20636;-76
2021/12/21 08:16:14;;;;;;;20.02;11.02;;;;;;;-1.49;53.79;100864.56;5042467;28;20102;-78
2021/12/21 08:18:42;;;;;;;17.83;8.85;;;;;;;-1.45;53.72;100874.00;5043582;28;20090;-76
2021/12/21 08:21:11;;;;;;;31.17;12.23;;;;;;;-1.41;54.02;100869.66;5041077;28;20111;-77
2021/12/21 08:23:39;;;;;;;21.27;9.45;;;;;;;-1.37;53.81;100861.81;5042326;28;20113;-75
2021/12/21 08:26:06;;;;;;;23.80;10.07;;;;;;;-1.30;53.78;100870.34;5041231;28;20056;-76
2021/12/21 08:28:35;;;;;;;19.77;10.68;;;;;;;-1.26;53.66;100866.88;5041788;28;20069;-78
2021/12/21 08:31:03;;;;;;;12.13;5.22;;;;;;;-1.23;53.81;100866.81;5044666;28;20468;-78
2021/12/21 08:33:34;;;;;;;11.48;5.20;;;;;;;-1.17;53.93;100865.84;5044333;28;20049;-79
2021/12/21 08:36:01;;;;;;;9.93;6.07;;;;;;;-1.17;53.97;100866.72;5042600;28;20557;-74
2021/12/21 08:38:30;;;;;;;9.57;4.60;;;;;;;-1.12;53.90;100858.03;5024200;28;20466;-77
2021/12/21 08:40:59;;;;;;;12.27;4.80;;;;;;;-1.09;53.66;100851.06;5047117;28;20372;-77
2021/12/21 08:43:28;;;;;;;16.48;5.93;;;;;;;-1.13;53.86;100864.94;5044035;28;20056;-77
2021/12/21 08:45:57;;;;;;;11.25;5.97;;;;;;;-1.09;53.93;100869.22;5041529;28;20501;-78
2021/12/21 08:48:26;;;;;;;18.08;7.90;;;;;;;-0.99;53.83;100865.59;5042963;28;20048;-78
2021/12/21 08:51:00;;;;;;;17.88;6.05;;;;;;;-0.89;53.80;100866.31;5041878;28;20489;-80
2021/12/21 08:53:27;;;;;;;24.58;7.40;;;;;;;-0.79;53.56;100874.81;5044267;28;20049;-76
2021/12/21 08:56:01;;;;;;;13.63;6.43;;;;;;;-0.75;53.39;100873.03;5043460;28;20645;-79
2021/12/21 08:58:37;;;;;;;11.77;5.47;;;;;;;-0.73;53.34;100876.47;5046828;28;20049;-79
2021/12/21 09:01:07;;;;;;;11.60;5.68;;;;;;;-0.70;53.28;100881.56;5044644;28;20063;-81
2021/12/21 09:03:34;;;;;;;11.40;4.32;;;;;;;-0.67;53.25;100872.00;5042244;28;20102;-83
2021/12/21 09:06:04;;;;;;;10.02;5.03;;;;;;;-0.59;53.38;100872.75;5045001;28;20579;-81
2021/12/21 09:08:32;;;;;;;9.27;4.68;;;;;;;-0.53;53.22;100886.50;5046209;28;20057;-77
2021/12/21 09:11:05;;;;;;;7.20;4.05;;;;;;;-0.48;52.99;100885.56;5063468;28;20442;-77
2021/12/21 09:13:35;;;;;;;9.20;3.83;;;;;;;-0.47;53.18;100895.06;5065418;28;20064;-82
2021/12/21 09:16:03;;;;;;;9.93;5.20;;;;;;;-0.46;53.19;100882.94;5051639;28;20045;-82
2021/12/21 09:18:30;;;;;;;11.27;4.97;;;;;;;-0.41;52.64;100889.75;5044692;28;20075;-79
2021/12/21 09:20:57;;;;;;;5.82;4.00;;;;;;;-0.29;52.73;100880.91;5048403;28;20057;-77
2021/12/21 09:23:28;;;;;;;14.93;5.68;;;;;;;-0.11;52.36;100887.53;5046218;28;20064;-74
2021/12/21 09:25:56;;;;;;;11.95;4.82;;;;;;;0.03;52.25;100897.63;5044966;28;20057;-77
2021/12/21 09:28:26;;;;;;;11.68;6.40;;;;;;;0.10;52.04;100901.81;5044142;28;20413;-80
2021/12/21 09:30:56;;;;;;;14.05;5.30;;;;;;;0.18;51.99;100894.75;5047394;28;20053;-79
2021/12/21 09:33:23;;;;;;;12.85;6.30;;;;;;;0.26;51.41;100901.53;5048833;28;20485;-75
2021/12/21 09:35:52;;;;;;;14.85;8.63;;;;;;;0.22;50.78;100903.34;5043793;28;20064;-75
2021/12/21 09:38:24;;;;;;;12.57;7.03;;;;;;;0.28;50.55;100905.81;5041861;28;20052;-78
2021/12/21 09:40:55;;;;;;;9.65;6.28;;;;;;;0.43;50.96;100893.41;5044659;28;20575;-74
2021/12/21 09:43:30;;;;;;;12.98;6.57;;;;;;;0.55;50.57;100896.59;5043078;28;20052;-75
2021/12/21 09:45:59;;;;;;;16.50;7.63;;;;;;;0.64;50.82;100892.97;5041463;28;20136;-77
2021/12/21 09:48:30;;;;;;;19.90;8.00;;;;;;;0.73;50.77;100886.72;5049667;28;20053;-79
2021/12/21 09:51:03;;;;;;;19.83;9.07;;;;;;;0.77;50.63;100880.53;5043321;28;20473;-78
2021/12/21 09:53:42;;;;;;;22.50;11.07;;;;;;;0.85;50.56;100890.81;5042839;28;20045;-77
2021/12/21 09:56:18;;;;;;;21.77;10.02;;;;;;;0.89;50.27;100882.03;5044311;28;20056;-78
2021/12/21 09:58:45;;;;;;;19.50;8.82;;;;;;;0.89;50.36;100882.88;5044823;28;20060;-78
2021/12/21 10:01:21;;;;;;;14.70;7.78;;;;;;;0.95;50.17;100882.75;5043440;28;20041;-77
2021/12/21 10:03:52;;;;;;;18.15;8.82;;;;;;;0.92;49.67;100875.00;5043101;28;20080;-78
2021/12/21 10:06:19;;;;;;;19.77;10.15;;;;;;;0.88;49.98;100877.72;5045438;28;20111;-79
2021/12/21 10:08:56;;;;;;;16.98;8.93;;;;;;;0.94;50.04;100877.59;5045374;28;20049;-79
2021/12/21 10:11:47;;;;;;;15.40;9.07;;;;;;;1.01;50.00;100883.47;5045807;28;20045;-80
2021/12/21 10:14:15;;;;;;;10.48;6.95;;;;;;;1.16;50.16;100870.13;5041208;28;20389;-75
2021/12/21 10:16:55;;;;;;;16.65;6.97;;;;;;;1.57;49.61;100875.19;5045648;28;20611;-77
2021/12/21 10:19:24;;;;;;;16.77;7.35;;;;;;;2.07;48.85;100871.28;5042789;28;20535;-79
2021/12/21 10:21:52;;;;;;;14.55;8.70;;;;;;;2.39;48.44;100866.91;5042073;28;20097;-82
2021/12/21 10:24:24;;;;;;;12.90;6.57;;;;;;;2.55;48.18;100856.03;5048484;28;20068;-75
2021/12/21 10:27:07;;;;;;;13.20;7.30;;;;;;;2.47;48.69;100864.09;5048328;28;20076;-76
2021/12/21 10:29:47;;;;;;;19.48;8.35;;;;;;;2.57;48.64;100864.66;5042426;28;20155;-76
2021/12/21 10:32:19;;;;;;;14.25;6.82;;;;;;;2.64;48.54;100858.38;5043573;28;20045;-79
2021/12/21 10:35:39;;;;;;;19.30;10.05;;;;;;;2.93;47.99;100857.47;5044090;28;20056;-79
2021/12/21 10:38:10;;;;;;;15.52;7.60;;;;;;;3.12;47.26;100857.78;4945755;29;20191;-80
2021/12/21 10:40:44;;;;;;;19.05;8.80;;;;;;;3.07;47.44;100849.22;4953206;28;20612;-76
2021/12/21 10:43:15;;;;;;;13.40;6.75;;;;;;;2.94;47.62;100847.91;4944806;29;20305;-78
2021/12/21 10:45:48;;;;;;;18.50;9.10;;;;;;;2.71;47.61;100841.66;4947765;28;20608;-76
2021/12/21 10:48:35;;;;;;;27.83;12.07;;;;;;;2.70;48.09;100839.91;4951581;29;20070;-78
2021/12/21 10:51:28;;;;;;;;;;;;;;;;;;;;;
2021/12/21 10:57:17;;;;;;;12.43;7.00;;;;;;;2.36;47.53;100835.75;4915211;29;20051;-74
2021/12/21 11:00:00;;;;;;;20.58;9.25;;;;;;;2.40;47.25;100829.53;4924868;29;20096;-77
2021/12/21 11:02:43;;;;;;;15.30;8.15;;;;;;;2.53;47.05;100830.00;4944040;29;20110;-76
2021/12/21 11:05:23;;;;;;;19.98;10.75;;;;;;;2.41;46.34;100827.75;4945674;28;20095;-78
2021/12/21 11:08:02;;;;;;;31.45;14.48;;;;;;;2.57;46.01;100822.94;4948774;28;20154;-80
2021/12/21 11:11:10;;;;;;;27.13;14.65;;;;;;;2.56;45.59;100831.69;4952386;28;20050;-79
2021/12/21 11:13:42;;;;;;;24.85;11.77;;;;;;;2.52;46.01;100824.84;4978365;28;20125;-77
2021/12/21 11:19:51;;;;;;;17.00;9.43;;;;;;;2.45;46.68;100819.81;5027753;28;20056;-76
2021/12/21 11:22:32;;;;;;;24.70;9.00;;;;;;;2.35;46.87;100817.53;5026794;28;20174;-77
2021/12/21 11:25:16;;;;;;;23.85;9.75;;;;;;;2.33;47.24;100821.94;5025970;28;20568;-80
2021/12/21 11:27:52;;;;;;;26.23;13.63;;;;;;;2.35;47.49;100818.38;5028160;28;20132;-81
2021/12/21 11:30:33;;;;;;;30.25;16.48;;;;;;;2.41;47.00;100818.22;5033088;28;20174;-82
2021/12/21 11:33:22;;;;;;;21.48;12.48;;;;;;;2.31;46.71;100821.97;5026685;28;20061;-80
2021/12/21 11:45:20;;;;;;;17.30;11.00;;;;;;;2.27;44.79;100820.38;4878687;29;20506;-77
2021/12/21 12:12:37;;;;;;;23.70;14.43;;;;;;;1.39;47.58;100811.44;4828894;29;20115;-79
2021/12/21 12:15:19;;;;;;;20.67;12.45;;;;;;;1.41;48.10;100823.53;4883911;29;20269;-80
2021/12/21 12:35:28;;;;;;;13.63;8.77;;;;;;;1.51;46.92;100808.53;4837919;29;20062;-79
2021/12/21 14:05:05;;;;;;;25.00;13.90;;;;;;;0.71;51.05;100816.53;4741335;30;20056;-72
2021/12/21 14:29:22;;;;;;;25.15;11.90;;;;;;;0.11;53.33;100810.03;4758665;30;20106;-73
2021/12/21 14:32:41;;;;;;;22.38;12.25;;;;;;;0.04;53.88;100808.47;4755203;30;20105;-77
2021/12/21 14:35:39;;;;;;;22.55;13.55;;;;;;;0.04;53.99;100812.78;4757165;30;20056;-74
2021/12/21 14:41:47;;;;;;;23.55;14.68;;;;;;;-0.04;54.14;100802.53;4757732;30;20093;-76
2021/12/21 14:47:55;;;;;;;26.10;14.25;;;;;;;-0.05;53.96;100806.03;4754495;30;20159;-74
2021/12/21 15:12:32;;;;;;;49.08;23.10;;;;;;;0.59;53.12;100785.63;4751742;30;20153;-76
2021/12/21 15:15:29;;;;;;;36.00;19.25;;;;;;;0.66;53.22;100791.53;4755486;30;20060;-77
2021/12/21 15:21:39;;;;;;;30.42;16.42;;;;;;;0.73;52.94;100790.50;4757394;30;20088;-70
2021/12/21 15:34:20;;;;;;;37.60;17.63;;;;;;;0.80;52.84;100789.47;4754567;30;20058;-73
2021/12/21 15:54:02;;;;;;;34.05;21.02;;;;;;;0.83;54.02;100799.81;4769029;29;20065;-74
2021/12/21 15:56:30;;;;;;;30.13;15.93;;;;;;;0.88;54.03;100804.88;4828744;29;20144;-71
2021/12/21 16:01:40;;;;;;;30.17;19.20;;;;;;;0.82;54.66;100807.66;4845771;29;20069;-78
2021/12/21 16:10:02;;;;;;;27.10;17.63;;;;;;;0.68;55.70;100815.75;4854450;29;20049;-73